Terminal Aerodrome Forecast
Issued by NWS Duluth, MN

Home | Current Version | Previous Version | Text Only | Print | Product List | Glossary On
Versions: 1 2 3 4 5 6 7 8 9 10 11 12 13 14 15 16 17 18 19 20 21 22 23 24 25 26 27 28 29
000
FTUS43 KDLH 311200 AAA
TAFINL
TAF AMD
KINL 311246Z 3113/0112 15008KT P6SM VCSH BKN018 OVC030
      TEMPO 3113/3116 BKN008
     FM311600 16012G20KT P6SM VCSH SCT025 BKN050
     FM312200 18012KT P6SM VCTS SCT020 BKN040CB
     FM010400 26005KT 5SM BR VCSH OVC015
     FM010800 29009KT 4SM BR VCSH OVC007=

USA.gov is the U.S. government's official web portal to all federal, state and local government web resources and services.